createdAt,value
2019-05-16T00:00:29.157Z,9.40
2019-05-16T00:02:58.844Z,9.40
2019-05-16T00:05:28.069Z,9.40
2019-05-16T00:07:59.025Z,9.30
2019-05-16T00:10:28.160Z,9.30
2019-05-16T00:12:59.685Z,9.20
2019-05-16T00:15:28.744Z,9.30
2019-05-16T00:17:58.443Z,9.20
2019-05-16T00:20:28.482Z,9.20
2019-05-16T00:22:58.899Z,9.20
2019-05-16T00:25:28.589Z,9.10
2019-05-16T00:27:58.673Z,9.00
2019-05-16T00:30:28.870Z,9.00
2019-05-16T00:32:58.838Z,9.00
2019-05-16T00:35:28.542Z,9.00
2019-05-16T00:37:59.080Z,8.90
2019-05-16T00:40:27.974Z,8.90
2019-05-16T00:42:58.633Z,8.80
2019-05-16T00:45:29.179Z,8.80
2019-05-16T00:47:58.560Z,8.80
2019-05-16T00:50:28.837Z,8.80
2019-05-16T00:52:58.975Z,8.80
2019-05-16T00:55:29.919Z,8.70
2019-05-16T00:57:58.707Z,8.70
2019-05-16T01:00:45.349Z,8.60
2019-05-16T01:03:14.537Z,8.60
2019-05-16T01:05:44.412Z,8.60
2019-05-16T01:08:13.191Z,8.60
2019-05-16T01:10:41.674Z,8.50
2019-05-16T01:13:10.098Z,8.50
2019-05-16T01:15:38.516Z,8.40
2019-05-16T01:18:08.249Z,8.50
2019-05-16T01:20:38.594Z,8.40
2019-05-16T01:23:08.904Z,8.40
2019-05-16T01:25:38.743Z,8.40
2019-05-16T01:28:08.815Z,8.30
2019-05-16T01:30:38.088Z,8.30
2019-05-16T01:33:08.933Z,8.20
2019-05-16T01:35:38.605Z,8.20
2019-05-16T01:38:08.665Z,8.20
2019-05-16T01:40:38.760Z,8.20
2019-05-16T01:43:08.595Z,8.30
2019-05-16T01:45:38.489Z,8.30
2019-05-16T01:48:08.211Z,8.20
2019-05-16T01:50:38.813Z,8.20
2019-05-16T01:53:08.688Z,8.20
2019-05-16T01:55:38.186Z,8.10
2019-05-16T01:58:08.050Z,8.20
2019-05-16T02:00:49.904Z,8.20
2019-05-16T02:03:08.388Z,8.20
2019-05-16T02:05:38.879Z,8.30
2019-05-16T02:08:08.952Z,8.30
2019-05-16T02:10:37.953Z,8.30
2019-05-16T02:13:08.447Z,8.30
2019-05-16T02:15:38.359Z,8.30
2019-05-16T02:18:08.284Z,8.30
2019-05-16T02:20:39.258Z,8.30
2019-05-16T02:23:08.081Z,8.30
2019-05-16T02:25:40.506Z,8.30
2019-05-16T02:28:06.764Z,8.30
2019-05-16T02:30:35.179Z,8.20
2019-05-16T02:33:03.598Z,8.20
2019-05-16T02:35:32.104Z,8.20
2019-05-16T02:38:01.138Z,8.20
2019-05-16T02:40:31.271Z,8.20
2019-05-16T02:43:02.870Z,8.20
2019-05-16T02:45:32.360Z,8.20
2019-05-16T02:48:01.602Z,8.10
2019-05-16T02:50:31.692Z,8.10
2019-05-16T02:53:01.411Z,8.10
2019-05-16T02:55:30.954Z,8.10
2019-05-16T02:58:00.901Z,8.10
2019-05-16T03:00:42.089Z,8.10
2019-05-16T03:03:07.954Z,8.10
2019-05-16T03:05:36.403Z,8.10
2019-05-16T03:08:06.632Z,8.20
2019-05-16T03:10:35.414Z,8.20
2019-05-16T03:13:03.900Z,8.20
2019-05-16T03:15:32.335Z,8.20
2019-05-16T03:18:04.489Z,8.20
2019-05-16T03:20:35.563Z,8.20
2019-05-16T03:23:06.990Z,8.20
2019-05-16T03:25:35.451Z,8.10
2019-05-16T03:28:03.882Z,8.10
2019-05-16T03:30:35.219Z,8.10
2019-05-16T03:33:04.627Z,8.00
2019-05-16T03:35:33.924Z,8.10
2019-05-16T03:38:05.547Z,8.10
2019-05-16T03:40:35.131Z,8.10
2019-05-16T03:43:03.566Z,8.10
2019-05-16T03:45:32.372Z,8.10
2019-05-16T03:48:03.241Z,8.00
2019-05-16T03:50:32.035Z,8.00
2019-05-16T03:53:01.563Z,8.10
2019-05-16T03:55:32.593Z,8.10
2019-05-16T03:58:01.399Z,8.20
2019-05-16T04:00:52.297Z,8.10
2019-05-16T04:03:32.775Z,8.20
2019-05-16T04:06:00.828Z,8.20
2019-05-16T04:08:31.219Z,8.20
2019-05-16T04:11:01.412Z,8.20
2019-05-16T04:13:31.395Z,8.30
2019-05-16T04:16:01.381Z,8.30
2019-05-16T04:18:31.873Z,8.30
2019-05-16T04:21:06.138Z,8.30
2019-05-16T04:23:34.570Z,8.30
2019-05-16T04:26:02.998Z,8.30
2019-05-16T04:28:32.102Z,8.40
2019-05-16T04:31:01.946Z,8.40
2019-05-16T04:33:31.268Z,8.40
2019-05-16T04:36:16.670Z,8.50
2019-05-16T04:38:46.636Z,8.50
2019-05-16T04:41:15.350Z,8.60
2019-05-16T04:43:43.778Z,8.50
2019-05-16T04:46:13.734Z,8.60
2019-05-16T04:48:42.181Z,8.60
2019-05-16T04:51:10.732Z,8.60
2019-05-16T04:53:42.380Z,8.60
2019-05-16T04:56:11.007Z,8.60
2019-05-16T04:58:41.983Z,8.50
2019-05-16T05:01:11.190Z,8.60
2019-05-16T05:03:41.025Z,8.50
2019-05-16T05:06:11.386Z,8.60
2019-05-16T05:08:50.472Z,8.50
2019-05-16T05:11:12.826Z,8.50
2019-05-16T05:13:43.356Z,8.50
2019-05-16T05:16:11.775Z,8.50
2019-05-16T05:18:43.150Z,8.50
2019-05-16T05:21:11.898Z,8.60
2019-05-16T05:23:40.818Z,8.50
2019-05-16T05:26:10.806Z,8.60
2019-05-16T05:28:40.241Z,8.50
2019-05-16T05:31:10.870Z,8.50
2019-05-16T05:33:41.699Z,8.50
2019-05-16T05:36:12.174Z,8.50
2019-05-16T05:38:40.289Z,8.50
2019-05-16T05:41:10.699Z,8.50
2019-05-16T05:43:39.772Z,8.50
2019-05-16T05:46:10.657Z,8.50
2019-05-16T05:48:40.883Z,8.50
2019-05-16T05:51:11.053Z,8.50
2019-05-16T05:53:40.159Z,8.50
2019-05-16T05:56:11.353Z,8.50
2019-05-16T05:58:40.742Z,8.50
2019-05-16T06:01:11.153Z,8.50
2019-05-16T06:03:39.882Z,8.50
2019-05-16T06:06:10.464Z,8.50
2019-05-16T06:08:40.921Z,8.50
2019-05-16T06:11:10.009Z,8.50
2019-05-16T06:13:40.428Z,8.50
2019-05-16T06:16:10.767Z,8.50
2019-05-16T06:18:39.698Z,8.50
2019-05-16T06:21:11.236Z,8.60
2019-05-16T06:23:40.293Z,8.60
2019-05-16T06:26:11.828Z,8.60
2019-05-16T06:28:41.179Z,8.70
2019-05-16T06:31:14.124Z,8.70
2019-05-16T06:33:41.108Z,8.70
2019-05-16T06:36:11.004Z,8.70
2019-05-16T06:38:40.513Z,8.70
2019-05-16T06:41:10.612Z,8.80
2019-05-16T06:43:40.066Z,8.80
2019-05-16T06:46:10.826Z,8.80
2019-05-16T06:48:39.880Z,8.80
2019-05-16T06:51:10.582Z,8.80
2019-05-16T06:53:40.481Z,8.80
2019-05-16T06:56:10.503Z,8.80
2019-05-16T06:58:47.773Z,8.90
2019-05-16T07:01:10.255Z,8.90
2019-05-16T07:03:40.122Z,8.90
2019-05-16T07:06:11.020Z,8.90
2019-05-16T07:08:40.343Z,9.00
2019-05-16T07:11:10.551Z,9.00
2019-05-16T07:13:40.615Z,9.00
2019-05-16T07:16:09.767Z,9.00
2019-05-16T07:18:40.191Z,9.00
2019-05-16T07:21:10.654Z,9.00
2019-05-16T07:23:40.474Z,9.00
2019-05-16T07:26:09.940Z,9.00
2019-05-16T07:28:40.600Z,9.00
2019-05-16T07:31:17.605Z,9.10
2019-05-16T07:33:40.712Z,9.10
2019-05-16T07:36:10.028Z,9.10
2019-05-16T07:38:40.048Z,9.10
2019-05-16T07:41:11.162Z,9.10
2019-05-16T07:43:40.031Z,9.20
2019-05-16T07:46:11.018Z,9.20
2019-05-16T07:48:40.330Z,9.10
2019-05-16T07:51:10.294Z,9.10
2019-05-16T07:53:40.301Z,9.10
2019-05-16T07:56:10.592Z,9.00
2019-05-16T07:58:41.389Z,9.10
2019-05-16T08:01:12.418Z,9.10
2019-05-16T08:03:43.744Z,9.10
2019-05-16T08:06:10.964Z,9.10
2019-05-16T08:08:40.357Z,9.20
2019-05-16T08:11:11.794Z,9.20
2019-05-16T08:13:40.008Z,9.20
2019-05-16T08:16:10.242Z,9.20
2019-05-16T08:18:41.664Z,9.20
2019-05-16T08:21:11.451Z,9.20
2019-05-16T08:23:41.107Z,9.20
2019-05-16T08:26:10.364Z,9.30
2019-05-16T08:28:41.195Z,9.20
2019-05-16T08:31:11.808Z,9.30
2019-05-16T08:33:41.585Z,9.30
2019-05-16T08:36:11.905Z,9.30
2019-05-16T08:38:43.022Z,9.30
2019-05-16T08:41:14.364Z,9.30
2019-05-16T08:43:41.473Z,9.30
2019-05-16T08:46:12.300Z,9.30
2019-05-16T08:48:42.251Z,9.40
2019-05-16T08:51:12.188Z,9.40
2019-05-16T08:53:43.238Z,9.40
2019-05-16T08:56:13.531Z,9.40
2019-05-16T08:58:41.196Z,9.40
2019-05-16T09:01:14.794Z,9.40
2019-05-16T09:03:41.573Z,9.40
2019-05-16T09:06:11.762Z,9.50
2019-05-16T09:08:40.196Z,9.40
2019-05-16T09:13:38.752Z,9.50
2019-05-16T09:16:07.891Z,9.50
2019-05-16T09:18:36.428Z,9.50
2019-05-16T09:18:41.267Z,9.60
2019-05-16T09:21:07.365Z,9.60
2019-05-16T09:23:38.415Z,9.60
2019-05-16T09:26:15.408Z,9.60
2019-05-16T09:28:38.947Z,9.70
2019-05-16T09:31:07.191Z,9.70
2019-05-16T09:33:37.542Z,9.80
2019-05-16T09:36:08.054Z,9.80
2019-05-16T09:38:38.277Z,9.80
2019-05-16T09:41:07.893Z,9.90
2019-05-16T09:43:38.943Z,9.90
2019-05-16T09:46:07.812Z,9.90
2019-05-16T09:48:37.985Z,9.90
2019-05-16T09:51:06.835Z,9.90
2019-05-16T09:53:36.577Z,9.90
2019-05-16T09:56:07.043Z,9.90
2019-05-16T09:58:37.245Z,9.90
2019-05-16T10:01:06.671Z,9.90
2019-05-16T10:03:37.304Z,9.90
2019-05-16T10:06:08.105Z,9.90
2019-05-16T10:08:37.476Z,9.90
2019-05-16T10:11:06.310Z,9.90
2019-05-16T10:13:37.298Z,9.90
2019-05-16T10:16:08.218Z,9.90
2019-05-16T10:18:37.103Z,9.90
2019-05-16T10:21:07.989Z,10.00
2019-05-16T10:23:36.434Z,9.90
2019-05-16T10:26:05.078Z,9.90
2019-05-16T10:28:33.587Z,10.00
2019-05-16T10:31:02.025Z,9.90
2019-05-16T10:33:30.511Z,9.90
2019-05-16T10:35:58.927Z,10.00
2019-05-16T10:38:28.741Z,10.00
2019-05-16T10:40:57.365Z,10.00
2019-05-16T10:43:26.489Z,10.00
2019-05-16T10:45:55.093Z,10.00
2019-05-16T10:48:23.617Z,10.10
2019-05-16T10:50:52.157Z,10.10
2019-05-16T10:53:50.041Z,10.20
2019-05-16T10:55:50.958Z,10.20
2019-05-16T10:58:35.498Z,10.30
2019-05-16T11:01:10.907Z,10.30
2019-05-16T11:03:19.747Z,10.40
2019-05-16T11:06:01.205Z,10.50
2019-05-16T11:08:18.521Z,10.60
2019-05-16T11:10:47.637Z,10.70
2019-05-16T11:13:19.819Z,10.80
2019-05-16T11:15:47.442Z,10.80
2019-05-16T11:18:17.594Z,10.80
2019-05-16T11:20:49.200Z,10.90
2019-05-16T11:23:22.255Z,11.00
2019-05-16T11:25:47.093Z,11.10
2019-05-16T11:28:17.705Z,11.20
2019-05-16T11:30:47.589Z,11.20
2019-05-16T11:33:17.445Z,11.20
2019-05-16T11:35:47.612Z,11.20
2019-05-16T11:38:17.834Z,11.20
2019-05-16T11:40:47.554Z,11.10
2019-05-16T11:43:21.105Z,11.10
2019-05-16T11:45:47.363Z,11.20
2019-05-16T11:48:17.124Z,11.10
2019-05-16T11:50:47.974Z,11.10
2019-05-16T11:53:17.493Z,11.20
2019-05-16T11:55:54.456Z,11.20
2019-05-16T11:58:18.060Z,11.20
2019-05-16T12:00:48.236Z,11.10
2019-05-16T12:03:17.213Z,11.10
2019-05-16T12:05:48.189Z,11.10
2019-05-16T12:08:17.483Z,11.10
2019-05-16T12:10:47.175Z,11.20
2019-05-16T12:13:28.205Z,11.30
2019-05-16T12:15:49.110Z,11.30
2019-05-16T12:18:17.571Z,11.40
2019-05-16T12:20:46.058Z,11.50
2019-05-16T12:23:17.179Z,11.50
2019-05-16T12:25:47.370Z,11.60
2019-05-16T12:28:16.874Z,11.70
2019-05-16T12:30:47.128Z,11.60
2019-05-16T12:33:18.396Z,11.60
2019-05-16T12:35:47.403Z,11.60
2019-05-16T12:38:17.031Z,11.50
2019-05-16T12:40:47.958Z,11.60
2019-05-16T12:43:18.062Z,11.50
2019-05-16T12:45:47.268Z,11.50
2019-05-16T12:48:19.932Z,11.50
2019-05-16T12:50:47.935Z,11.60
2019-05-16T12:53:16.740Z,11.50
2019-05-16T12:55:47.360Z,11.60
2019-05-16T12:58:24.584Z,11.60
2019-05-16T13:00:54.099Z,11.60
2019-05-16T13:03:15.631Z,11.70
2019-05-16T13:05:44.065Z,11.70
2019-05-16T13:08:12.524Z,11.70
2019-05-16T13:10:41.674Z,11.70
2019-05-16T13:13:10.120Z,11.70
2019-05-16T13:15:42.087Z,11.70
2019-05-16T13:18:08.775Z,11.80
2019-05-16T13:20:41.009Z,11.80
2019-05-16T13:23:14.473Z,11.70
2019-05-16T13:25:37.799Z,11.70
2019-05-16T13:28:08.243Z,11.80
2019-05-16T13:30:37.737Z,11.80
2019-05-16T13:33:07.305Z,11.70
2019-05-16T13:35:37.017Z,11.80
2019-05-16T13:38:07.961Z,11.70
2019-05-16T13:40:36.375Z,11.80
2019-05-16T13:43:09.340Z,11.80
2019-05-16T13:45:37.506Z,11.70
2019-05-16T13:48:07.839Z,11.70
2019-05-16T13:50:37.297Z,11.70
2019-05-16T13:53:07.842Z,11.60
2019-05-16T13:55:37.746Z,11.60
2019-05-16T13:58:07.744Z,11.60
2019-05-16T14:00:37.530Z,11.60
2019-05-16T14:03:07.421Z,11.70
2019-05-16T14:05:38.076Z,11.80
2019-05-16T14:08:06.987Z,11.80
2019-05-16T14:10:37.654Z,11.90
2019-05-16T14:13:07.482Z,11.90
2019-05-16T14:15:36.753Z,12.00
2019-05-16T14:18:07.744Z,12.00
2019-05-16T14:20:37.678Z,12.00
2019-05-16T14:23:08.512Z,12.00
2019-05-16T14:25:38.090Z,12.00
2019-05-16T14:28:07.672Z,12.00
2019-05-16T14:30:37.278Z,12.00
2019-05-16T14:33:13.030Z,12.00
2019-05-16T14:35:37.702Z,12.00
2019-05-16T14:38:06.490Z,12.00
2019-05-16T14:40:37.357Z,12.00
2019-05-16T14:43:08.191Z,12.00
2019-05-16T14:45:37.266Z,12.00
2019-05-16T14:48:07.505Z,12.00
2019-05-16T14:50:37.554Z,12.10
2019-05-16T14:53:07.463Z,12.20
2019-05-16T14:55:38.269Z,12.20
2019-05-16T14:58:07.497Z,12.20
2019-05-16T15:00:38.313Z,12.20
2019-05-16T15:03:08.260Z,12.20
2019-05-16T15:05:42.406Z,12.20
2019-05-16T15:08:08.190Z,12.20
2019-05-16T15:10:37.739Z,12.10
2019-05-16T15:13:07.948Z,12.20
2019-05-16T15:15:37.584Z,12.10
2019-05-16T15:18:08.216Z,12.10
2019-05-16T15:20:36.588Z,12.10
2019-05-16T15:23:07.413Z,12.00
2019-05-16T15:25:37.454Z,12.10
2019-05-16T15:28:07.571Z,12.10
2019-05-16T15:30:38.991Z,12.10
2019-05-16T15:33:08.624Z,12.10
2019-05-16T15:35:38.076Z,12.00
2019-05-16T15:38:07.826Z,12.10
2019-05-16T15:40:37.697Z,12.20
2019-05-16T15:43:07.821Z,12.10
2019-05-16T15:45:43.969Z,12.20
2019-05-16T15:48:12.012Z,12.10
2019-05-16T15:50:41.084Z,12.10
2019-05-16T15:53:09.986Z,12.10
2019-05-16T15:55:38.583Z,12.10
2019-05-16T15:58:10.211Z,12.10
2019-05-16T16:00:43.169Z,12.00
2019-05-16T16:03:12.059Z,12.10
2019-05-16T16:05:40.499Z,12.10
2019-05-16T16:08:09.128Z,12.10
2019-05-16T16:10:43.772Z,12.10
2019-05-16T16:13:12.290Z,12.10
2019-05-16T16:15:50.333Z,12.10
2019-05-16T16:18:11.227Z,12.00
2019-05-16T16:20:39.660Z,12.00
2019-05-16T16:23:08.117Z,12.00
2019-05-16T16:25:36.717Z,12.10
2019-05-16T16:28:07.299Z,12.10
2019-05-16T16:30:37.396Z,12.10
2019-05-16T16:33:20.014Z,12.10
2019-05-16T16:35:37.863Z,12.10
2019-05-16T16:38:07.218Z,12.10
2019-05-16T16:40:37.591Z,12.00
2019-05-16T16:43:07.938Z,12.00
2019-05-16T16:45:36.312Z,12.00
2019-05-16T16:48:07.632Z,12.00
2019-05-16T16:50:37.101Z,12.00
2019-05-16T16:53:07.182Z,12.00
2019-05-16T16:55:37.072Z,12.00
2019-05-16T16:58:09.241Z,12.00
2019-05-16T17:00:37.701Z,12.00
2019-05-16T17:03:09.936Z,12.00
2019-05-16T17:05:37.187Z,11.90
2019-05-16T17:08:07.638Z,11.90
2019-05-16T17:10:38.015Z,11.80
2019-05-16T17:13:06.925Z,11.80
2019-05-16T17:15:36.703Z,11.80
2019-05-16T17:18:06.951Z,11.80
2019-05-16T17:20:37.197Z,11.80
2019-05-16T17:23:06.934Z,11.80
2019-05-16T17:25:36.618Z,11.80
2019-05-16T17:28:06.942Z,11.80
2019-05-16T17:30:36.758Z,11.80
2019-05-16T17:33:07.554Z,11.80
2019-05-16T17:35:38.553Z,11.80
2019-05-16T17:38:06.678Z,11.80
2019-05-16T17:40:37.931Z,11.70
2019-05-16T17:43:07.383Z,11.80
2019-05-16T17:45:37.494Z,11.70
2019-05-16T17:48:06.882Z,11.70
2019-05-16T17:50:37.515Z,11.70
2019-05-16T17:53:07.134Z,11.70
2019-05-16T17:55:36.821Z,11.70
2019-05-16T17:58:08.787Z,11.70
2019-05-16T18:00:36.015Z,11.70
2019-05-16T18:03:06.703Z,11.70
2019-05-16T18:05:37.155Z,11.70
2019-05-16T18:08:07.165Z,11.70
2019-05-16T18:10:36.488Z,11.70
2019-05-16T18:13:07.717Z,11.70
2019-05-16T18:15:36.746Z,11.70
2019-05-16T18:18:07.131Z,11.70
2019-05-16T18:20:37.290Z,11.60
2019-05-16T18:23:07.014Z,11.70
2019-05-16T18:25:36.642Z,11.60
2019-05-16T18:28:07.918Z,11.60
2019-05-16T18:30:36.628Z,11.60
2019-05-16T18:33:07.361Z,11.50
2019-05-16T18:35:37.002Z,11.50
2019-05-16T18:38:07.347Z,11.60
2019-05-16T18:40:36.783Z,11.60
2019-05-16T18:43:07.855Z,11.50
2019-05-16T18:45:36.657Z,11.50
2019-05-16T18:48:07.277Z,11.50
2019-05-16T18:50:37.473Z,11.50
2019-05-16T18:53:07.598Z,11.50
2019-05-16T18:55:37.259Z,11.50
2019-05-16T18:58:08.638Z,11.50
2019-05-16T19:00:37.532Z,11.50
2019-05-16T19:03:07.643Z,11.50
2019-05-16T19:05:37.238Z,11.50
2019-05-16T19:08:07.329Z,11.50
2019-05-16T19:10:36.812Z,11.40
2019-05-16T19:13:08.069Z,11.40
2019-05-16T19:15:37.527Z,11.50
2019-05-16T19:18:06.966Z,11.40
2019-05-16T19:20:37.457Z,11.50
2019-05-16T19:23:07.435Z,11.50
2019-05-16T19:25:36.055Z,11.40
2019-05-16T19:28:06.828Z,11.50
2019-05-16T19:30:37.094Z,11.40
2019-05-16T19:33:06.853Z,11.50
2019-05-16T19:35:35.224Z,11.50
2019-05-16T19:38:03.665Z,11.50
2019-05-16T19:40:32.114Z,11.40
2019-05-16T19:43:00.555Z,11.40
2019-05-16T19:45:29.001Z,11.40
2019-05-16T19:47:58.112Z,11.40
2019-05-16T19:50:26.846Z,11.40
2019-05-16T19:52:56.670Z,11.50
2019-05-16T19:55:27.054Z,11.50
2019-05-16T19:57:57.251Z,11.50
2019-05-16T20:00:26.732Z,11.50
2019-05-16T20:02:56.940Z,11.50
2019-05-16T20:05:26.705Z,11.50
2019-05-16T20:07:55.449Z,11.50
2019-05-16T20:10:24.139Z,11.50
2019-05-16T20:12:52.608Z,11.50
2019-05-16T20:15:21.266Z,11.50
2019-05-16T20:17:57.749Z,11.50
2019-05-16T20:20:20.176Z,11.50
2019-05-16T20:22:48.678Z,11.50
2019-05-16T20:25:17.277Z,11.50
2019-05-16T20:27:46.936Z,11.50
2019-05-16T20:30:17.474Z,11.60
2019-05-16T20:32:45.924Z,11.50
2019-05-16T20:35:14.500Z,11.50
2019-05-16T20:37:42.935Z,11.50
2019-05-16T20:42:41.007Z,11.50
2019-05-16T20:45:10.147Z,11.50
2019-05-16T20:47:38.576Z,11.40
2019-05-16T20:50:08.419Z,11.40
2019-05-16T20:52:38.468Z,11.40
2019-05-16T20:55:10.663Z,11.40
2019-05-16T20:57:42.109Z,11.40
2019-05-16T21:00:17.550Z,11.30
2019-05-16T21:02:49.539Z,11.30
2019-05-16T21:05:18.195Z,11.30
2019-05-16T21:07:51.269Z,11.30
2019-05-16T21:10:19.913Z,11.30
2019-05-16T21:12:48.804Z,11.30
2019-05-16T21:15:22.741Z,11.30
2019-05-16T21:17:56.569Z,11.30
2019-05-16T21:20:29.552Z,11.30
2019-05-16T21:22:56.488Z,11.30
2019-05-16T21:25:26.521Z,11.30
2019-05-16T21:28:07.911Z,11.20
2019-05-16T21:30:36.817Z,11.20
2019-05-16T21:33:07.282Z,11.20
2019-05-16T21:35:37.018Z,11.20
2019-05-16T21:38:08.749Z,11.20
2019-05-16T21:40:37.141Z,11.20
2019-05-16T21:43:07.493Z,11.20
2019-05-16T21:45:37.177Z,11.20
2019-05-16T21:48:07.398Z,11.20
2019-05-16T21:50:36.832Z,11.10
2019-05-16T21:53:07.873Z,11.10
2019-05-16T21:55:37.046Z,11.00
2019-05-16T21:58:05.982Z,11.00
2019-05-16T22:00:39.142Z,10.90
2019-05-16T22:03:09.262Z,10.90
2019-05-16T22:05:37.697Z,10.90
2019-05-16T22:08:07.423Z,10.80
2019-05-16T22:10:37.343Z,10.80
2019-05-16T22:13:07.825Z,10.80
2019-05-16T22:15:36.754Z,10.70
2019-05-16T22:18:07.239Z,10.70
2019-05-16T22:20:35.594Z,10.70
2019-05-16T22:23:04.111Z,10.60
2019-05-16T22:25:32.622Z,10.50
2019-05-16T22:28:01.160Z,10.50
2019-05-16T22:30:29.657Z,10.50
2019-05-16T22:32:58.089Z,10.40
2019-05-16T22:35:27.477Z,10.40
2019-05-16T22:37:59.216Z,10.40
2019-05-16T22:40:26.693Z,10.30
2019-05-16T22:42:57.555Z,10.30
2019-05-16T22:45:27.023Z,10.30
2019-05-16T22:47:58.736Z,10.20
2019-05-16T22:50:29.764Z,10.20
2019-05-16T22:52:58.209Z,10.20
2019-05-16T22:55:26.823Z,10.20
2019-05-16T22:57:56.525Z,10.20
2019-05-16T23:00:29.173Z,10.10
2019-05-16T23:02:57.618Z,10.10
2019-05-16T23:05:27.409Z,10.00
2019-05-16T23:08:05.154Z,10.00
2019-05-16T23:10:28.117Z,10.00
2019-05-16T23:12:57.242Z,10.00
2019-05-16T23:15:26.599Z,10.00
2019-05-16T23:17:57.366Z,9.90
2019-05-16T23:20:27.573Z,9.90
2019-05-16T23:22:56.365Z,9.90
2019-05-16T23:25:25.209Z,9.90
2019-05-16T23:27:53.634Z,9.90
2019-05-16T23:30:22.325Z,9.90
2019-05-16T23:32:50.756Z,9.90
2019-05-16T23:35:19.198Z,9.80
2019-05-16T23:37:47.654Z,9.80
2019-05-16T23:40:16.936Z,9.80
2019-05-16T23:42:46.508Z,9.80
2019-05-16T23:45:17.195Z,9.80
2019-05-16T23:47:47.103Z,9.70
2019-05-16T23:50:17.134Z,9.70
2019-05-16T23:52:47.055Z,9.70
2019-05-16T23:55:17.307Z,9.70
2019-05-16T23:57:46.589Z,9.70
